createdAt,value
2018-02-14T00:01:07.631Z,10.90
2018-02-14T00:03:39.158Z,9.90
2018-02-14T00:06:09.382Z,10.43
2018-02-14T00:08:42.298Z,7.57
2018-02-14T00:11:12.719Z,14.50
2018-02-14T00:13:42.663Z,11.00
2018-02-14T00:16:12.731Z,13.13
2018-02-14T00:18:43.553Z,11.17
2018-02-14T00:21:13.917Z,7.30
2018-02-14T00:23:44.769Z,8.37
2018-02-14T00:26:14.685Z,15.53
2018-02-14T00:28:44.907Z,9.83
2018-02-14T00:31:14.664Z,10.83
2018-02-14T00:33:44.959Z,9.37
2018-02-14T00:36:15.056Z,13.83
2018-02-14T00:38:45.800Z,12.23
2018-02-14T00:41:15.750Z,9.10
2018-02-14T00:43:48.094Z,7.50
2018-02-14T00:46:20.896Z,8.33
2018-02-14T00:48:53.194Z,7.00
2018-02-14T00:51:23.224Z,12.83
2018-02-14T00:53:53.440Z,10.73
2018-02-14T00:56:23.024Z,8.13
2018-02-14T00:58:54.070Z,9.40
2018-02-14T01:01:24.988Z,7.47
2018-02-14T01:03:55.473Z,6.73
2018-02-14T01:06:25.805Z,9.97
2018-02-14T01:08:55.797Z,8.60
2018-02-14T01:11:23.768Z,10.83
2018-02-14T01:13:51.642Z,11.50
2018-02-14T01:16:19.610Z,12.33
2018-02-14T01:18:48.089Z,11.07
2018-02-14T01:21:15.557Z,9.33
2018-02-14T01:23:43.424Z,10.90
2018-02-14T01:26:11.000Z,8.50
2018-02-14T01:28:38.981Z,7.53
2018-02-14T01:31:06.415Z,10.30
2018-02-14T01:33:33.970Z,8.40
2018-02-14T01:36:01.697Z,11.37
2018-02-14T01:38:29.174Z,12.13
2018-02-14T01:40:56.663Z,10.70
2018-02-14T01:43:24.220Z,7.63
2018-02-14T01:45:51.788Z,8.30
2018-02-14T01:48:19.284Z,9.03
2018-02-14T01:50:47.241Z,10.70
2018-02-14T01:53:14.787Z,11.37
2018-02-14T01:55:42.257Z,10.37
2018-02-14T01:58:09.795Z,8.60
2018-02-14T02:00:37.281Z,8.57
2018-02-14T02:03:04.809Z,8.40
2018-02-14T02:05:32.294Z,12.63
2018-02-14T02:08:00.895Z,7.73
2018-02-14T02:10:28.390Z,9.60
2018-02-14T02:12:56.342Z,9.63
2018-02-14T02:15:24.206Z,14.50
2018-02-14T02:17:51.716Z,12.57
2018-02-14T02:20:19.181Z,12.87
2018-02-14T02:22:46.689Z,10.57
2018-02-14T02:25:14.184Z,13.70
2018-02-14T02:27:42.103Z,11.63
2018-02-14T02:30:09.602Z,8.20
2018-02-14T02:32:37.476Z,10.47
2018-02-14T02:35:05.450Z,10.70
2018-02-14T02:37:33.409Z,7.87
2018-02-14T02:40:12.848Z,11.67
2018-02-14T02:42:40.743Z,10.33
2018-02-14T02:45:10.507Z,10.80
2018-02-14T02:47:38.099Z,11.27
2018-02-14T02:50:05.664Z,12.13
2018-02-14T02:52:33.572Z,12.70
2018-02-14T02:55:01.074Z,9.30
2018-02-14T02:57:28.651Z,12.30
2018-02-14T02:59:56.208Z,11.67
2018-02-14T03:02:23.697Z,10.03
2018-02-14T03:04:51.590Z,10.73
2018-02-14T03:07:19.067Z,7.97
2018-02-14T03:09:46.533Z,8.70
2018-02-14T03:12:14.014Z,14.20
2018-02-14T03:14:41.508Z,7.77
2018-02-14T03:17:09.072Z,12.93
2018-02-14T03:19:36.940Z,8.80
2018-02-14T03:22:05.244Z,10.20
2018-02-14T03:24:33.098Z,12.30
2018-02-14T03:27:00.619Z,15.87
2018-02-14T03:29:29.144Z,8.23
2018-02-14T03:31:56.626Z,10.87
2018-02-14T03:34:24.161Z,10.90
2018-02-14T03:36:51.642Z,11.20
2018-02-14T03:39:19.538Z,11.53
2018-02-14T03:41:47.077Z,10.07
2018-02-14T03:44:14.678Z,13.80
2018-02-14T03:46:42.140Z,11.47
2018-02-14T03:49:09.612Z,8.33
2018-02-14T03:51:37.118Z,11.67
2018-02-14T03:54:04.671Z,12.20
2018-02-14T03:56:32.179Z,19.63
2018-02-14T03:58:59.702Z,10.87
2018-02-14T04:01:27.578Z,13.10
2018-02-14T04:03:55.449Z,13.07
2018-02-14T04:06:23.321Z,15.63
2018-02-14T04:08:51.276Z,10.70
2018-02-14T04:11:18.749Z,13.40
2018-02-14T04:13:46.222Z,15.87
2018-02-14T04:16:13.768Z,10.70
2018-02-14T04:18:41.334Z,11.73
2018-02-14T04:21:08.820Z,12.60
2018-02-14T04:23:36.689Z,11.40
2018-02-14T04:26:04.634Z,13.00
2018-02-14T04:28:32.089Z,15.03
2018-02-14T04:30:59.566Z,12.40
2018-02-14T04:33:27.144Z,12.50
2018-02-14T04:35:54.668Z,8.20
2018-02-14T04:38:22.136Z,10.07
2018-02-14T04:40:49.596Z,10.60
2018-02-14T04:43:19.381Z,10.60
2018-02-14T04:45:46.852Z,12.77
2018-02-14T04:48:14.406Z,14.77
2018-02-14T04:50:41.868Z,15.90
2018-02-14T04:53:09.387Z,12.90
2018-02-14T04:55:36.925Z,16.00
2018-02-14T04:58:04.416Z,10.43
2018-02-14T05:00:32.297Z,9.90
2018-02-14T05:03:00.221Z,14.97
2018-02-14T05:05:27.710Z,14.10
2018-02-14T05:07:55.197Z,14.50
2018-02-14T05:10:23.046Z,17.33
2018-02-14T05:12:50.923Z,15.53
2018-02-14T05:15:18.805Z,14.83
2018-02-14T05:17:46.753Z,13.33
2018-02-14T05:20:14.424Z,14.17
2018-02-14T05:22:42.521Z,11.67
2018-02-14T05:25:10.490Z,13.03
2018-02-14T05:27:38.450Z,15.83
2018-02-14T05:30:06.423Z,16.80
2018-02-14T05:32:33.922Z,10.60
2018-02-14T05:35:01.436Z,16.70
2018-02-14T05:37:28.934Z,10.17
2018-02-14T05:39:56.810Z,14.07
2018-02-14T05:42:24.684Z,13.37
2018-02-14T05:44:52.171Z,12.97
2018-02-14T05:47:19.644Z,12.90
2018-02-14T05:49:47.251Z,22.67
2018-02-14T05:52:14.711Z,25.67
2018-02-14T05:54:42.609Z,19.80
2018-02-14T05:57:10.128Z,19.20
2018-02-14T05:59:37.688Z,14.80
2018-02-14T06:02:05.604Z,17.07
2018-02-14T06:04:33.087Z,18.53
2018-02-14T06:07:00.790Z,17.93
2018-02-14T06:09:28.289Z,14.80
2018-02-14T06:11:56.136Z,18.03
2018-02-14T06:14:23.610Z,16.70
2018-02-14T06:16:51.569Z,15.70
2018-02-14T06:19:19.132Z,15.77
2018-02-14T06:21:46.597Z,16.73
2018-02-14T06:24:14.131Z,18.90
2018-02-14T06:26:41.718Z,11.60
2018-02-14T06:29:09.298Z,15.53
2018-02-14T06:31:37.174Z,14.87
2018-02-14T06:34:05.074Z,27.13
2018-02-14T06:36:32.568Z,17.97
2018-02-14T06:39:00.152Z,17.00
2018-02-14T06:41:27.707Z,17.20
2018-02-14T06:43:55.268Z,15.40
2018-02-14T06:46:22.759Z,17.97
2018-02-14T06:48:50.621Z,17.83
2018-02-14T06:51:18.500Z,16.60
2018-02-14T06:53:46.400Z,21.87
2018-02-14T06:56:13.937Z,19.60
2018-02-14T06:58:41.796Z,19.20
2018-02-14T07:01:10.555Z,20.10
2018-02-14T07:03:38.044Z,18.97
2018-02-14T07:06:05.528Z,16.73
2018-02-14T07:08:33.080Z,12.97
2018-02-14T07:11:01.251Z,18.40
2018-02-14T07:13:29.133Z,16.40
2018-02-14T07:15:57.021Z,13.30
2018-02-14T07:18:24.500Z,23.03
2018-02-14T07:20:52.014Z,21.40
2018-02-14T07:23:25.318Z,27.00
2018-02-14T07:25:53.212Z,21.13
2018-02-14T07:28:20.792Z,21.03
2018-02-14T07:30:48.328Z,19.70
2018-02-14T07:33:16.195Z,20.57
2018-02-14T07:35:43.679Z,17.40
2018-02-14T07:38:11.199Z,16.57
2018-02-14T07:40:38.769Z,22.23
2018-02-14T07:43:06.322Z,19.43
2018-02-14T07:45:33.891Z,24.60
2018-02-14T07:48:02.107Z,29.37
2018-02-14T07:50:29.597Z,29.80
2018-02-14T07:52:57.229Z,35.33
2018-02-14T07:55:25.115Z,24.03
2018-02-14T07:57:52.581Z,27.77
2018-02-14T08:00:20.045Z,20.67
2018-02-14T08:02:47.515Z,18.30
2018-02-14T08:05:15.015Z,20.60
2018-02-14T08:07:42.488Z,21.20
2018-02-14T08:10:09.955Z,23.47
2018-02-14T08:12:37.928Z,20.80
2018-02-14T08:15:05.897Z,22.73
2018-02-14T08:17:33.816Z,22.13
2018-02-14T08:20:01.340Z,17.23
2018-02-14T08:22:28.801Z,15.43
2018-02-14T08:24:56.664Z,19.70
2018-02-14T08:27:24.188Z,16.97
2018-02-14T08:29:51.662Z,23.83
2018-02-14T08:32:19.150Z,29.20
2018-02-14T08:34:46.638Z,22.17
2018-02-14T08:37:14.114Z,22.27
2018-02-14T08:39:41.599Z,16.80
2018-02-14T08:42:09.183Z,17.50
2018-02-14T08:44:36.640Z,17.90
2018-02-14T08:47:04.237Z,19.43
2018-02-14T08:49:32.153Z,22.40
2018-02-14T08:51:59.628Z,20.93
2018-02-14T08:54:27.141Z,21.53
2018-02-14T08:56:55.008Z,18.17
2018-02-14T08:59:22.891Z,23.70
2018-02-14T09:01:51.143Z,19.23
2018-02-14T09:04:19.034Z,17.17
2018-02-14T09:06:46.976Z,22.30
2018-02-14T09:09:14.642Z,21.33
2018-02-14T09:11:42.196Z,18.37
2018-02-14T09:14:09.800Z,20.13
2018-02-14T09:16:37.735Z,17.00
2018-02-14T09:19:05.240Z,22.87
2018-02-14T09:21:33.098Z,21.30
2018-02-14T09:24:01.467Z,18.70
2018-02-14T09:26:29.056Z,20.07
2018-02-14T09:28:56.565Z,21.70
2018-02-14T09:31:24.149Z,20.80
2018-02-14T09:33:51.680Z,16.80
2018-02-14T09:36:19.216Z,21.17
2018-02-14T09:38:46.718Z,18.50
2018-02-14T09:41:14.213Z,18.23
2018-02-14T09:43:41.678Z,17.73
2018-02-14T09:46:09.641Z,17.47
2018-02-14T09:48:37.156Z,17.73
2018-02-14T09:51:04.668Z,17.30
2018-02-14T09:53:32.167Z,22.90
2018-02-14T09:55:59.654Z,22.10
2018-02-14T09:58:27.161Z,18.63
2018-02-14T10:00:54.673Z,20.20
2018-02-14T10:03:22.173Z,16.17
2018-02-14T10:05:49.774Z,18.60
2018-02-14T10:08:17.642Z,19.33
2018-02-14T10:10:45.534Z,18.00
2018-02-14T10:13:13.006Z,19.17
2018-02-14T10:15:40.508Z,23.00
2018-02-14T10:18:08.024Z,16.80
2018-02-14T10:20:35.542Z,18.17
2018-02-14T10:23:03.864Z,16.73
2018-02-14T10:25:31.380Z,18.13
2018-02-14T10:27:58.854Z,19.00
2018-02-14T10:30:26.761Z,19.00
2018-02-14T10:32:54.226Z,18.53
2018-02-14T10:35:21.855Z,25.23
2018-02-14T10:37:49.557Z,23.77
2018-02-14T10:40:17.119Z,19.43
2018-02-14T10:42:44.594Z,17.60
2018-02-14T10:45:12.086Z,19.37
2018-02-14T10:47:39.721Z,15.13
2018-02-14T10:50:07.187Z,19.60
2018-02-14T10:52:34.694Z,19.07
2018-02-14T10:55:02.177Z,17.87
2018-02-14T10:57:30.036Z,18.10
2018-02-14T10:59:58.021Z,19.60
2018-02-14T11:02:25.883Z,17.33
2018-02-14T11:04:59.504Z,17.40
2018-02-14T11:07:27.371Z,18.20
2018-02-14T11:09:56.176Z,16.60
2018-02-14T11:12:23.709Z,16.10
2018-02-14T11:14:51.275Z,15.17
2018-02-14T11:17:19.140Z,16.70
2018-02-14T11:19:46.706Z,15.03
2018-02-14T11:22:14.206Z,15.33
2018-02-14T11:24:41.745Z,18.30
2018-02-14T11:27:09.629Z,16.87
2018-02-14T11:29:37.108Z,14.40
2018-02-14T11:32:04.567Z,19.33
2018-02-14T11:34:32.074Z,20.40
2018-02-14T11:36:59.877Z,13.73
2018-02-14T11:39:27.821Z,16.57
2018-02-14T11:41:55.311Z,18.43
2018-02-14T11:44:23.214Z,14.57
2018-02-14T11:46:50.689Z,13.57
2018-02-14T11:49:18.171Z,18.73
2018-02-14T11:51:45.747Z,16.77
2018-02-14T11:54:13.293Z,16.70
2018-02-14T11:56:40.752Z,19.10
2018-02-14T11:59:08.236Z,19.63
2018-02-14T12:01:35.718Z,26.03
2018-02-14T12:04:03.629Z,21.37
2018-02-14T12:06:31.102Z,18.53
2018-02-14T12:08:58.592Z,15.67
2018-02-14T12:11:26.108Z,20.43
2018-02-14T12:13:53.660Z,20.77
2018-02-14T12:16:21.134Z,17.63
2018-02-14T12:18:48.649Z,18.13
2018-02-14T12:21:16.120Z,23.10
2018-02-14T12:23:43.717Z,17.33
2018-02-14T12:26:11.225Z,16.43
2018-02-14T12:28:38.719Z,17.27
2018-02-14T12:31:06.593Z,20.03
2018-02-14T12:33:34.607Z,13.90
2018-02-14T12:36:02.130Z,20.13
2018-02-14T12:38:30.004Z,20.83
2018-02-14T12:40:57.891Z,20.50
2018-02-14T12:43:25.382Z,17.30
2018-02-14T12:45:52.881Z,24.03
2018-02-14T12:48:20.441Z,16.57
2018-02-14T12:50:47.951Z,17.33
2018-02-14T12:53:15.493Z,20.30
2018-02-14T12:55:43.006Z,16.43
2018-02-14T12:58:10.493Z,16.87
2018-02-14T13:00:38.513Z,18.17
2018-02-14T13:03:05.999Z,17.80
2018-02-14T13:05:33.488Z,15.50
2018-02-14T13:08:00.989Z,17.97
2018-02-14T13:10:28.499Z,13.70
2018-02-14T13:12:56.059Z,16.30
2018-02-14T13:15:23.652Z,21.20
2018-02-14T13:17:51.540Z,19.70
2018-02-14T13:20:19.418Z,21.47
2018-02-14T13:22:46.989Z,17.03
2018-02-14T13:25:14.837Z,17.00
2018-02-14T13:27:42.818Z,15.30
2018-02-14T13:30:10.793Z,15.37
2018-02-14T13:32:39.372Z,15.07
2018-02-14T13:35:07.253Z,16.77
2018-02-14T13:37:35.107Z,15.17
2018-02-14T13:40:02.593Z,18.17
2018-02-14T13:42:30.459Z,18.47
2018-02-14T13:44:58.340Z,19.60
2018-02-14T13:47:25.830Z,15.77
2018-02-14T13:49:53.328Z,17.63
2018-02-14T13:52:20.800Z,19.13
2018-02-14T13:54:48.299Z,19.20
2018-02-14T13:57:15.806Z,16.97
2018-02-14T13:59:43.285Z,17.97
2018-02-14T14:02:10.774Z,16.87
2018-02-14T14:04:38.230Z,14.33
2018-02-14T14:07:06.110Z,12.70
2018-02-14T14:09:34.065Z,13.40
2018-02-14T14:12:01.945Z,14.73
2018-02-14T14:14:29.825Z,12.87
2018-02-14T14:16:57.338Z,15.20
2018-02-14T14:19:24.828Z,13.23
2018-02-14T14:21:52.697Z,14.80
2018-02-14T14:24:20.634Z,11.47
2018-02-14T14:26:48.118Z,15.40
2018-02-14T14:29:15.591Z,10.80
2018-02-14T14:31:43.538Z,15.07
2018-02-14T14:34:11.015Z,14.40
2018-02-14T14:36:38.499Z,11.53
2018-02-14T14:39:06.452Z,13.83
2018-02-14T14:41:34.023Z,12.03
2018-02-14T14:44:01.577Z,11.40
2018-02-14T14:46:29.058Z,12.13
2018-02-14T14:48:56.972Z,13.30
2018-02-14T14:51:24.466Z,13.60
2018-02-14T14:53:51.956Z,11.20
2018-02-14T14:56:19.849Z,11.97
2018-02-14T14:58:47.372Z,10.47
2018-02-14T15:01:14.936Z,12.47
2018-02-14T15:03:42.409Z,12.73
2018-02-14T15:06:09.924Z,11.40
2018-02-14T15:08:37.381Z,11.37
2018-02-14T15:11:04.962Z,12.33
2018-02-14T15:13:32.421Z,10.70
2018-02-14T15:15:59.901Z,10.03
2018-02-14T15:18:27.466Z,11.90
2018-02-14T15:20:54.962Z,10.93
2018-02-14T15:23:22.833Z,12.13
2018-02-14T15:25:50.307Z,11.33
2018-02-14T15:28:17.798Z,11.40
2018-02-14T15:30:45.269Z,9.57
2018-02-14T15:33:12.746Z,10.33
2018-02-14T15:35:40.331Z,11.27
2018-02-14T15:38:07.812Z,11.00
2018-02-14T15:40:35.684Z,10.80
2018-02-14T15:43:03.567Z,11.00
2018-02-14T15:45:31.021Z,10.60
2018-02-14T15:47:59.864Z,8.70
2018-02-14T15:50:28.392Z,8.10
2018-02-14T15:52:56.587Z,8.70
2018-02-14T15:55:24.513Z,9.90
2018-02-14T15:57:52.004Z,10.50
2018-02-14T16:00:19.864Z,9.40
2018-02-14T16:02:47.760Z,10.20
2018-02-14T16:05:15.241Z,8.30
2018-02-14T16:07:42.740Z,10.47
2018-02-14T16:10:10.271Z,10.30
2018-02-14T16:12:37.727Z,13.00
2018-02-14T16:15:05.228Z,9.73
2018-02-14T16:17:32.941Z,12.20
2018-02-14T16:20:00.410Z,16.60
2018-02-14T16:22:27.896Z,11.03
2018-02-14T16:24:55.367Z,11.47
2018-02-14T16:27:23.264Z,14.67
2018-02-14T16:29:50.813Z,9.70
2018-02-14T16:32:18.441Z,11.77
2018-02-14T16:34:45.955Z,14.10
2018-02-14T16:37:13.458Z,15.07
2018-02-14T16:39:40.970Z,12.00
2018-02-14T16:42:08.440Z,14.40
2018-02-14T16:44:35.970Z,9.77
2018-02-14T16:47:03.424Z,16.83
2018-02-14T16:49:31.284Z,12.97
2018-02-14T16:51:59.159Z,12.40
2018-02-14T16:54:26.687Z,18.17
2018-02-14T16:56:54.557Z,14.80
2018-02-14T16:59:22.396Z,15.70
2018-02-14T17:01:49.866Z,13.47
2018-02-14T17:04:17.313Z,16.07
2018-02-14T17:06:44.799Z,16.63
2018-02-14T17:09:12.282Z,19.70
2018-02-14T17:11:40.166Z,14.80
2018-02-14T17:14:08.143Z,17.40
2018-02-14T17:16:36.799Z,17.60
2018-02-14T17:19:04.287Z,15.60
2018-02-14T17:21:32.256Z,16.70
2018-02-14T17:24:00.158Z,16.77
2018-02-14T17:26:28.219Z,15.30
2018-02-14T17:28:55.689Z,18.00
2018-02-14T17:31:23.199Z,15.90
2018-02-14T17:33:51.771Z,15.37
2018-02-14T17:36:19.404Z,15.37
2018-02-14T17:38:46.914Z,16.77
2018-02-14T17:41:14.473Z,18.37
2018-02-14T17:43:42.001Z,17.50
2018-02-14T17:46:09.818Z,19.10
2018-02-14T17:48:37.308Z,17.73
2018-02-14T17:51:05.359Z,19.90
2018-02-14T17:53:32.850Z,17.17
2018-02-14T17:56:00.710Z,17.87
2018-02-14T17:58:28.575Z,19.70
2018-02-14T18:00:56.044Z,18.63
2018-02-14T18:03:23.902Z,16.10
2018-02-14T18:05:51.861Z,22.87
2018-02-14T18:08:19.291Z,18.27
2018-02-14T18:10:46.784Z,18.83
2018-02-14T18:13:14.262Z,21.73
2018-02-14T18:15:42.172Z,20.33
2018-02-14T18:18:09.672Z,24.50
2018-02-14T18:20:37.378Z,23.00
2018-02-14T18:23:05.275Z,24.00
2018-02-14T18:25:32.807Z,22.17
2018-02-14T18:28:00.693Z,20.37
2018-02-14T18:30:28.230Z,22.73
2018-02-14T18:32:56.078Z,19.20
2018-02-14T18:35:23.621Z,25.07
2018-02-14T18:37:51.371Z,24.50
2018-02-14T18:40:18.828Z,20.80
2018-02-14T18:42:46.354Z,21.03
2018-02-14T18:45:14.072Z,20.73
2018-02-14T18:47:41.600Z,20.40
2018-02-14T18:50:09.503Z,22.40
2018-02-14T18:52:37.106Z,24.67
2018-02-14T18:55:04.672Z,23.53
2018-02-14T18:57:32.155Z,23.50
2018-02-14T19:00:00.433Z,26.27
2018-02-14T19:02:28.441Z,23.93
2018-02-14T19:04:56.020Z,25.90
2018-02-14T19:07:23.569Z,25.03
2018-02-14T19:09:51.050Z,18.50
2018-02-14T19:12:18.582Z,21.03
2018-02-14T19:14:46.107Z,23.40
2018-02-14T19:17:13.588Z,21.10
2018-02-14T19:19:41.109Z,17.33
2018-02-14T19:22:08.594Z,19.20
2018-02-14T19:24:36.069Z,25.90
2018-02-14T19:27:05.475Z,20.00
2018-02-14T19:29:33.546Z,15.20
2018-02-14T19:32:01.046Z,19.97
2018-02-14T19:34:28.616Z,15.57
2018-02-14T19:36:56.158Z,18.50
2018-02-14T19:39:24.065Z,18.17
2018-02-14T19:41:51.549Z,19.17
2018-02-14T19:44:19.047Z,18.70
2018-02-14T19:46:47.001Z,21.87
2018-02-14T19:49:14.477Z,20.10
2018-02-14T19:51:42.003Z,20.23
2018-02-14T19:54:09.492Z,22.20
2018-02-14T19:56:36.975Z,20.00
2018-02-14T19:59:04.860Z,18.47
2018-02-14T20:01:32.407Z,22.93
2018-02-14T20:04:00.061Z,22.90
2018-02-14T20:06:27.609Z,21.40
2018-02-14T20:08:55.218Z,19.67
2018-02-14T20:11:23.120Z,22.00
2018-02-14T20:13:50.600Z,23.67
2018-02-14T20:16:18.189Z,25.23
2018-02-14T20:18:46.074Z,20.73
2018-02-14T20:21:13.972Z,19.90
2018-02-14T20:23:41.745Z,18.13
2018-02-14T20:26:09.230Z,19.60
2018-02-14T20:28:36.764Z,18.70
2018-02-14T20:31:04.268Z,20.70
2018-02-14T20:33:31.848Z,20.10
2018-02-14T20:35:59.356Z,23.80
2018-02-14T20:38:26.884Z,21.17
2018-02-14T20:40:54.386Z,25.37
2018-02-14T20:43:21.957Z,22.67
2018-02-14T20:45:49.490Z,18.00
2018-02-14T20:48:17.539Z,23.30
2018-02-14T20:50:45.068Z,22.10
2018-02-14T20:53:13.309Z,23.87
2018-02-14T20:55:41.211Z,20.03
2018-02-14T20:58:08.677Z,22.87
2018-02-14T21:00:36.327Z,23.67
2018-02-14T21:03:04.039Z,21.63
2018-02-14T21:05:31.656Z,21.97
2018-02-14T21:07:59.168Z,23.07
2018-02-14T21:10:26.699Z,22.67
2018-02-14T21:12:54.230Z,22.50
2018-02-14T21:15:22.355Z,19.60
2018-02-14T21:17:49.886Z,24.47
2018-02-14T21:20:17.451Z,21.67
2018-02-14T21:22:44.987Z,23.60
2018-02-14T21:25:13.586Z,25.50
2018-02-14T21:27:41.496Z,23.03
2018-02-14T21:30:09.038Z,24.07
2018-02-14T21:32:37.073Z,20.57
2018-02-14T21:35:04.626Z,22.73
2018-02-14T21:37:32.093Z,22.40
2018-02-14T21:39:59.605Z,21.13
2018-02-14T21:42:27.109Z,22.03
2018-02-14T21:44:54.696Z,20.70
2018-02-14T21:47:22.711Z,23.13
2018-02-14T21:49:50.225Z,21.70
2018-02-14T21:52:17.711Z,20.20
2018-02-14T21:54:45.609Z,24.70
2018-02-14T21:57:13.105Z,22.20
2018-02-14T21:59:40.596Z,23.60
2018-02-14T22:02:08.347Z,23.20
2018-02-14T22:04:35.823Z,26.17
2018-02-14T22:07:03.696Z,24.90
2018-02-14T22:09:31.568Z,25.10
2018-02-14T22:11:59.540Z,26.60
2018-02-14T22:14:27.405Z,27.73
2018-02-14T22:16:55.280Z,22.97
2018-02-14T22:19:22.753Z,23.63
2018-02-14T22:21:50.720Z,22.40
2018-02-14T22:24:18.193Z,26.73
2018-02-14T22:26:46.102Z,25.60
2018-02-14T22:29:13.601Z,20.23
2018-02-14T22:31:41.095Z,27.00
2018-02-14T22:34:08.742Z,25.23
2018-02-14T22:36:36.216Z,27.77
2018-02-14T22:39:04.098Z,27.80
2018-02-14T22:41:31.581Z,31.20
2018-02-14T22:43:59.098Z,25.67
2018-02-14T22:46:26.589Z,24.83
2018-02-14T22:48:54.119Z,25.90
2018-02-14T22:51:22.108Z,27.83
2018-02-14T22:53:50.049Z,21.30
2018-02-14T22:56:17.528Z,27.50
2018-02-14T22:58:45.422Z,23.60
2018-02-14T23:01:12.877Z,30.53
2018-02-14T23:03:40.828Z,26.97
2018-02-14T23:06:08.329Z,27.60
2018-02-14T23:08:35.806Z,22.10
2018-02-14T23:11:03.302Z,22.23
2018-02-14T23:13:30.777Z,28.23
2018-02-14T23:15:58.237Z,23.70
2018-02-14T23:18:25.704Z,20.00
2018-02-14T23:20:53.172Z,23.40
2018-02-14T23:23:21.058Z,26.77
2018-02-14T23:25:48.596Z,22.10
2018-02-14T23:28:16.162Z,22.43
2018-02-14T23:30:44.028Z,25.67
2018-02-14T23:33:11.522Z,24.70
2018-02-14T23:35:39.376Z,26.13
2018-02-14T23:38:07.236Z,23.77
2018-02-14T23:40:34.709Z,24.33
2018-02-14T23:43:02.572Z,26.13
2018-02-14T23:45:30.050Z,24.23
2018-02-14T23:47:57.911Z,25.77
2018-02-14T23:50:25.772Z,28.80
2018-02-14T23:52:53.242Z,25.13
2018-02-14T23:55:21.093Z,24.83
2018-02-14T23:57:48.580Z,24.57
